sensor_id;sensor_type;location;lat;lon;timestamp;P1;durP1;ratioP1;P2;durP2;ratioP2
18780;SDS011;9519;51.890;8.970;2023-05-07T00:00:26;20.73;;;17.93;;
18780;SDS011;9519;51.890;8.970;2023-05-07T00:05:29;28.00;;;20.50;;
18780;SDS011;9519;51.890;8.970;2023-05-07T00:10:33;27.40;;;19.13;;
18780;SDS011;9519;51.890;8.970;2023-05-07T00:15:35;24.93;;;20.53;;
18780;SDS011;9519;51.890;8.970;2023-05-07T00:20:37;26.80;;;18.43;;
18780;SDS011;9519;51.890;8.970;2023-05-07T00:25:40;23.97;;;19.33;;
18780;SDS011;9519;51.890;8.970;2023-05-07T00:30:42;27.33;;;19.17;;
18780;SDS011;9519;51.890;8.970;2023-05-07T00:35:44;22.53;;;17.77;;
18780;SDS011;9519;51.890;8.970;2023-05-07T00:40:48;25.43;;;19.43;;
18780;SDS011;9519;51.890;8.970;2023-05-07T00:45:51;19.77;;;17.43;;
18780;SDS011;9519;51.890;8.970;2023-05-07T00:50:55;24.57;;;20.20;;
18780;SDS011;9519;51.890;8.970;2023-05-07T00:55:59;23.00;;;19.20;;
18780;SDS011;9519;51.890;8.970;2023-05-07T01:01:02;23.63;;;19.13;;
18780;SDS011;9519;51.890;8.970;2023-05-07T01:06:04;26.20;;;20.13;;
18780;SDS011;9519;51.890;8.970;2023-05-07T01:11:10;25.40;;;20.30;;
18780;SDS011;9519;51.890;8.970;2023-05-07T01:16:13;24.27;;;20.40;;
18780;SDS011;9519;51.890;8.970;2023-05-07T01:21:15;26.40;;;20.37;;
18780;SDS011;9519;51.890;8.970;2023-05-07T01:26:20;24.27;;;19.43;;
18780;SDS011;9519;51.890;8.970;2023-05-07T01:31:23;28.53;;;20.27;;
18780;SDS011;9519;51.890;8.970;2023-05-07T01:36:29;26.53;;;22.13;;
18780;SDS011;9519;51.890;8.970;2023-05-07T01:41:35;25.10;;;21.30;;
18780;SDS011;9519;51.890;8.970;2023-05-07T01:46:37;25.27;;;20.93;;
18780;SDS011;9519;51.890;8.970;2023-05-07T01:51:39;23.07;;;20.00;;
18780;SDS011;9519;51.890;8.970;2023-05-07T01:56:43;26.20;;;20.33;;
18780;SDS011;9519;51.890;8.970;2023-05-07T02:01:48;26.93;;;20.77;;
18780;SDS011;9519;51.890;8.970;2023-05-07T02:06:50;26.07;;;21.13;;
18780;SDS011;9519;51.890;8.970;2023-05-07T02:11:54;26.57;;;20.77;;
18780;SDS011;9519;51.890;8.970;2023-05-07T02:16:56;25.97;;;21.13;;
18780;SDS011;9519;51.890;8.970;2023-05-07T02:21:58;26.77;;;21.70;;
18780;SDS011;9519;51.890;8.970;2023-05-07T02:27:01;26.10;;;21.40;;
18780;SDS011;9519;51.890;8.970;2023-05-07T02:32:03;27.33;;;20.07;;
18780;SDS011;9519;51.890;8.970;2023-05-07T02:37:05;28.07;;;21.60;;
18780;SDS011;9519;51.890;8.970;2023-05-07T02:42:09;27.33;;;22.50;;
18780;SDS011;9519;51.890;8.970;2023-05-07T02:47:11;27.90;;;22.03;;
18780;SDS011;9519;51.890;8.970;2023-05-07T02:52:15;28.40;;;20.50;;
18780;SDS011;9519;51.890;8.970;2023-05-07T02:57:18;31.87;;;21.57;;
18780;SDS011;9519;51.890;8.970;2023-05-07T03:02:20;29.13;;;22.37;;
18780;SDS011;9519;51.890;8.970;2023-05-07T03:07:22;31.13;;;22.50;;
18780;SDS011;9519;51.890;8.970;2023-05-07T03:12:26;31.80;;;24.10;;
18780;SDS011;9519;51.890;8.970;2023-05-07T03:17:28;28.53;;;22.77;;
18780;SDS011;9519;51.890;8.970;2023-05-07T03:22:30;29.93;;;24.13;;
18780;SDS011;9519;51.890;8.970;2023-05-07T03:27:33;30.27;;;23.13;;
18780;SDS011;9519;51.890;8.970;2023-05-07T03:32:35;31.13;;;25.33;;
18780;SDS011;9519;51.890;8.970;2023-05-07T03:37:37;29.00;;;22.53;;
18780;SDS011;9519;51.890;8.970;2023-05-07T03:42:41;29.90;;;23.77;;
18780;SDS011;9519;51.890;8.970;2023-05-07T03:47:44;30.00;;;24.23;;
18780;SDS011;9519;51.890;8.970;2023-05-07T03:52:46;31.47;;;24.47;;
18780;SDS011;9519;51.890;8.970;2023-05-07T03:57:49;32.83;;;25.77;;
18780;SDS011;9519;51.890;8.970;2023-05-07T04:02:51;33.17;;;26.03;;
18780;SDS011;9519;51.890;8.970;2023-05-07T04:07:53;33.33;;;25.77;;
18780;SDS011;9519;51.890;8.970;2023-05-07T04:12:56;33.83;;;25.90;;
18780;SDS011;9519;51.890;8.970;2023-05-07T04:17:58;35.80;;;27.50;;
18780;SDS011;9519;51.890;8.970;2023-05-07T04:23:00;34.33;;;26.30;;
18780;SDS011;9519;51.890;8.970;2023-05-07T04:28:04;36.03;;;27.97;;
18780;SDS011;9519;51.890;8.970;2023-05-07T04:33:06;35.43;;;27.07;;
18780;SDS011;9519;51.890;8.970;2023-05-07T04:38:08;34.57;;;26.93;;
18780;SDS011;9519;51.890;8.970;2023-05-07T04:43:12;36.67;;;26.70;;
18780;SDS011;9519;51.890;8.970;2023-05-07T04:48:14;33.53;;;25.60;;
18780;SDS011;9519;51.890;8.970;2023-05-07T04:53:22;33.67;;;25.10;;
18780;SDS011;9519;51.890;8.970;2023-05-07T04:58:26;33.30;;;25.30;;
18780;SDS011;9519;51.890;8.970;2023-05-07T05:03:31;31.53;;;24.07;;
18780;SDS011;9519;51.890;8.970;2023-05-07T05:08:33;34.30;;;26.50;;
18780;SDS011;9519;51.890;8.970;2023-05-07T05:13:36;34.50;;;26.13;;
18780;SDS011;9519;51.890;8.970;2023-05-07T05:18:38;31.43;;;23.33;;
18780;SDS011;9519;51.890;8.970;2023-05-07T05:23:40;32.20;;;24.50;;
18780;SDS011;9519;51.890;8.970;2023-05-07T05:28:44;30.50;;;23.17;;
18780;SDS011;9519;51.890;8.970;2023-05-07T05:33:46;28.57;;;23.00;;
18780;SDS011;9519;51.890;8.970;2023-05-07T05:38:48;31.30;;;24.13;;
18780;SDS011;9519;51.890;8.970;2023-05-07T05:43:51;32.50;;;24.53;;
18780;SDS011;9519;51.890;8.970;2023-05-07T05:48:53;29.00;;;23.17;;
18780;SDS011;9519;51.890;8.970;2023-05-07T05:53:55;29.13;;;22.93;;
18780;SDS011;9519;51.890;8.970;2023-05-07T05:58:59;30.43;;;24.00;;
18780;SDS011;9519;51.890;8.970;2023-05-07T06:04:01;35.27;;;25.80;;
18780;SDS011;9519;51.890;8.970;2023-05-07T06:09:03;31.70;;;23.23;;
18780;SDS011;9519;51.890;8.970;2023-05-07T06:14:07;30.03;;;23.10;;
18780;SDS011;9519;51.890;8.970;2023-05-07T06:19:09;27.43;;;22.60;;
18780;SDS011;9519;51.890;8.970;2023-05-07T06:24:11;27.93;;;22.23;;
18780;SDS011;9519;51.890;8.970;2023-05-07T06:29:14;25.37;;;19.83;;
18780;SDS011;9519;51.890;8.970;2023-05-07T06:34:16;25.53;;;20.73;;
18780;SDS011;9519;51.890;8.970;2023-05-07T06:39:18;22.77;;;18.60;;
18780;SDS011;9519;51.890;8.970;2023-05-07T06:44:22;23.70;;;19.37;;
18780;SDS011;9519;51.890;8.970;2023-05-07T06:49:24;22.57;;;18.00;;
18780;SDS011;9519;51.890;8.970;2023-05-07T06:54:26;20.33;;;17.77;;
18780;SDS011;9519;51.890;8.970;2023-05-07T06:59:29;23.73;;;17.77;;
18780;SDS011;9519;51.890;8.970;2023-05-07T07:04:31;19.83;;;16.90;;
18780;SDS011;9519;51.890;8.970;2023-05-07T07:09:33;20.80;;;17.00;;
18780;SDS011;9519;51.890;8.970;2023-05-07T07:14:37;19.90;;;16.03;;
18780;SDS011;9519;51.890;8.970;2023-05-07T07:19:39;21.30;;;15.80;;
18780;SDS011;9519;51.890;8.970;2023-05-07T07:24:41;17.23;;;15.27;;
18780;SDS011;9519;51.890;8.970;2023-05-07T07:29:44;20.57;;;15.17;;
18780;SDS011;9519;51.890;8.970;2023-05-07T07:34:49;18.67;;;13.87;;
18780;SDS011;9519;51.890;8.970;2023-05-07T07:39:51;17.00;;;14.33;;
18780;SDS011;9519;51.890;8.970;2023-05-07T07:44:54;17.60;;;14.27;;
18780;SDS011;9519;51.890;8.970;2023-05-07T07:49:57;17.30;;;14.10;;
18780;SDS011;9519;51.890;8.970;2023-05-07T07:54:59;17.50;;;13.37;;
18780;SDS011;9519;51.890;8.970;2023-05-07T08:00:03;19.60;;;14.57;;
18780;SDS011;9519;51.890;8.970;2023-05-07T08:05:07;30.17;;;18.57;;
18780;SDS011;9519;51.890;8.970;2023-05-07T08:10:09;74.73;;;34.90;;
18780;SDS011;9519;51.890;8.970;2023-05-07T08:15:13;43.63;;;22.83;;
18780;SDS011;9519;51.890;8.970;2023-05-07T08:20:15;26.23;;;16.30;;
18780;SDS011;9519;51.890;8.970;2023-05-07T08:25:17;49.23;;;24.60;;
18780;SDS011;9519;51.890;8.970;2023-05-07T08:30:21;39.10;;;21.00;;
18780;SDS011;9519;51.890;8.970;2023-05-07T08:35:23;45.30;;;23.27;;
18780;SDS011;9519;51.890;8.970;2023-05-07T08:40:28;61.20;;;30.37;;
18780;SDS011;9519;51.890;8.970;2023-05-07T08:45:32;18.10;;;13.93;;
18780;SDS011;9519;51.890;8.970;2023-05-07T08:50:36;38.43;;;21.73;;
18780;SDS011;9519;51.890;8.970;2023-05-07T08:55:38;30.03;;;17.97;;
18780;SDS011;9519;51.890;8.970;2023-05-07T09:00:41;28.77;;;17.43;;
18780;SDS011;9519;51.890;8.970;2023-05-07T09:05:43;25.70;;;15.50;;
18780;SDS011;9519;51.890;8.970;2023-05-07T09:10:46;14.03;;;11.40;;
18780;SDS011;9519;51.890;8.970;2023-05-07T09:15:51;13.53;;;11.00;;
18780;SDS011;9519;51.890;8.970;2023-05-07T09:20:53;14.80;;;11.20;;
18780;SDS011;9519;51.890;8.970;2023-05-07T09:25:59;13.77;;;11.10;;
18780;SDS011;9519;51.890;8.970;2023-05-07T09:31:03;13.43;;;10.60;;
18780;SDS011;9519;51.890;8.970;2023-05-07T09:36:06;13.80;;;11.00;;
18780;SDS011;9519;51.890;8.970;2023-05-07T09:41:10;13.70;;;10.90;;
18780;SDS011;9519;51.890;8.970;2023-05-07T09:46:15;14.07;;;10.20;;
18780;SDS011;9519;51.890;8.970;2023-05-07T09:51:21;12.93;;;10.23;;
18780;SDS011;9519;51.890;8.970;2023-05-07T09:56:29;13.00;;;9.93;;
18780;SDS011;9519;51.890;8.970;2023-05-07T10:01:33;26.03;;;13.53;;
18780;SDS011;9519;51.890;8.970;2023-05-07T10:06:38;14.37;;;9.43;;
18780;SDS011;9519;51.890;8.970;2023-05-07T10:11:41;11.73;;;8.33;;
18780;SDS011;9519;51.890;8.970;2023-05-07T10:16:46;11.03;;;7.90;;
18780;SDS011;9519;51.890;8.970;2023-05-07T10:21:51;11.13;;;8.40;;
18780;SDS011;9519;51.890;8.970;2023-05-07T10:27:01;10.83;;;8.60;;
18780;SDS011;9519;51.890;8.970;2023-05-07T10:32:13;12.83;;;9.10;;
18780;SDS011;9519;51.890;8.970;2023-05-07T10:37:34;12.17;;;8.00;;
18780;SDS011;9519;51.890;8.970;2023-05-07T10:42:36;10.47;;;7.30;;
18780;SDS011;9519;51.890;8.970;2023-05-07T10:53:20;8.50;;;6.27;;
18780;SDS011;9519;51.890;8.970;2023-05-07T10:58:28;11.93;;;7.37;;
18780;SDS011;9519;51.890;8.970;2023-05-07T11:03:34;14.00;;;8.50;;
18780;SDS011;9519;51.890;8.970;2023-05-07T11:13:57;9.40;;;6.37;;
18780;SDS011;9519;51.890;8.970;2023-05-07T11:19:01;11.27;;;6.30;;
18780;SDS011;9519;51.890;8.970;2023-05-07T11:24:04;9.32;;;6.05;;
18780;SDS011;9519;51.890;8.970;2023-05-07T11:29:10;8.33;;;6.00;;
18780;SDS011;9519;51.890;8.970;2023-05-07T11:34:15;13.05;;;8.70;;
18780;SDS011;9519;51.890;8.970;2023-05-07T11:39:23;8.57;;;5.65;;
18780;SDS011;9519;51.890;8.970;2023-05-07T11:44:41;9.45;;;6.47;;
18780;SDS011;9519;51.890;8.970;2023-05-07T11:49:47;9.63;;;6.15;;
18780;SDS011;9519;51.890;8.970;2023-05-07T11:54:51;10.23;;;6.47;;
18780;SDS011;9519;51.890;8.970;2023-05-07T11:59:54;9.50;;;6.20;;
18780;SDS011;9519;51.890;8.970;2023-05-07T12:04:59;9.73;;;6.18;;
18780;SDS011;9519;51.890;8.970;2023-05-07T12:10:04;8.73;;;6.07;;
18780;SDS011;9519;51.890;8.970;2023-05-07T12:15:07;8.25;;;5.97;;
18780;SDS011;9519;51.890;8.970;2023-05-07T12:20:11;8.38;;;5.60;;
18780;SDS011;9519;51.890;8.970;2023-05-07T12:25:14;8.25;;;6.35;;
18780;SDS011;9519;51.890;8.970;2023-05-07T12:30:20;9.73;;;6.03;;
18780;SDS011;9519;51.890;8.970;2023-05-07T12:35:27;13.70;;;9.02;;
18780;SDS011;9519;51.890;8.970;2023-05-07T12:40:36;22.20;;;10.93;;
18780;SDS011;9519;51.890;8.970;2023-05-07T12:45:39;14.13;;;8.07;;
18780;SDS011;9519;51.890;8.970;2023-05-07T12:50:44;16.73;;;9.93;;
18780;SDS011;9519;51.890;8.970;2023-05-07T12:55:50;11.98;;;7.68;;
18780;SDS011;9519;51.890;8.970;2023-05-07T13:00:55;10.50;;;7.75;;
18780;SDS011;9519;51.890;8.970;2023-05-07T13:06:02;9.52;;;7.63;;
18780;SDS011;9519;51.890;8.970;2023-05-07T13:11:09;10.85;;;7.63;;
18780;SDS011;9519;51.890;8.970;2023-05-07T13:16:12;13.13;;;7.57;;
18780;SDS011;9519;51.890;8.970;2023-05-07T13:21:15;12.00;;;8.88;;
18780;SDS011;9519;51.890;8.970;2023-05-07T13:26:17;13.23;;;9.15;;
18780;SDS011;9519;51.890;8.970;2023-05-07T13:31:20;10.48;;;8.75;;
18780;SDS011;9519;51.890;8.970;2023-05-07T13:36:23;13.35;;;9.02;;
18780;SDS011;9519;51.890;8.970;2023-05-07T13:41:26;12.77;;;8.60;;
18780;SDS011;9519;51.890;8.970;2023-05-07T13:46:28;11.70;;;9.38;;
18780;SDS011;9519;51.890;8.970;2023-05-07T13:51:32;12.93;;;9.63;;
18780;SDS011;9519;51.890;8.970;2023-05-07T13:56:34;11.73;;;9.25;;
18780;SDS011;9519;51.890;8.970;2023-05-07T14:01:36;14.32;;;10.20;;
18780;SDS011;9519;51.890;8.970;2023-05-07T14:06:40;11.77;;;9.35;;
18780;SDS011;9519;51.890;8.970;2023-05-07T14:11:42;17.75;;;11.30;;
18780;SDS011;9519;51.890;8.970;2023-05-07T14:16:44;17.23;;;11.82;;
18780;SDS011;9519;51.890;8.970;2023-05-07T14:21:48;16.80;;;12.05;;
18780;SDS011;9519;51.890;8.970;2023-05-07T14:26:50;13.63;;;9.55;;
18780;SDS011;9519;51.890;8.970;2023-05-07T14:31:52;23.80;;;13.75;;
18780;SDS011;9519;51.890;8.970;2023-05-07T14:36:55;12.60;;;9.70;;
18780;SDS011;9519;51.890;8.970;2023-05-07T14:41:57;13.00;;;10.23;;
18780;SDS011;9519;51.890;8.970;2023-05-07T14:47:01;11.48;;;9.02;;
18780;SDS011;9519;51.890;8.970;2023-05-07T14:52:04;13.27;;;8.93;;
18780;SDS011;9519;51.890;8.970;2023-05-07T14:57:08;10.95;;;8.18;;
18780;SDS011;9519;51.890;8.970;2023-05-07T15:02:13;11.40;;;8.55;;
18780;SDS011;9519;51.890;8.970;2023-05-07T15:07:16;8.75;;;7.45;;
18780;SDS011;9519;51.890;8.970;2023-05-07T15:12:18;12.63;;;9.18;;
18780;SDS011;9519;51.890;8.970;2023-05-07T15:17:20;9.95;;;8.02;;
18780;SDS011;9519;51.890;8.970;2023-05-07T15:22:24;10.98;;;8.55;;
18780;SDS011;9519;51.890;8.970;2023-05-07T15:27:26;9.57;;;8.18;;
18780;SDS011;9519;51.890;8.970;2023-05-07T15:32:28;10.15;;;7.93;;
18780;SDS011;9519;51.890;8.970;2023-05-07T15:37:32;8.65;;;7.72;;
18780;SDS011;9519;51.890;8.970;2023-05-07T15:42:34;8.73;;;7.70;;
18780;SDS011;9519;51.890;8.970;2023-05-07T15:47:36;11.75;;;7.68;;
18780;SDS011;9519;51.890;8.970;2023-05-07T15:52:39;9.45;;;7.40;;
18780;SDS011;9519;51.890;8.970;2023-05-07T15:57:42;8.85;;;7.80;;
18780;SDS011;9519;51.890;8.970;2023-05-07T16:02:44;9.43;;;6.95;;
18780;SDS011;9519;51.890;8.970;2023-05-07T16:07:47;8.35;;;6.85;;
18780;SDS011;9519;51.890;8.970;2023-05-07T16:12:49;9.50;;;6.65;;
18780;SDS011;9519;51.890;8.970;2023-05-07T16:17:51;8.43;;;6.90;;
18780;SDS011;9519;51.890;8.970;2023-05-07T16:22:58;8.40;;;6.40;;
18780;SDS011;9519;51.890;8.970;2023-05-07T16:28:00;8.20;;;5.80;;
18780;SDS011;9519;51.890;8.970;2023-05-07T16:33:02;8.27;;;6.75;;
18780;SDS011;9519;51.890;8.970;2023-05-07T16:38:08;9.25;;;7.20;;
18780;SDS011;9519;51.890;8.970;2023-05-07T16:43:10;11.05;;;7.38;;
18780;SDS011;9519;51.890;8.970;2023-05-07T16:48:13;8.85;;;7.40;;
18780;SDS011;9519;51.890;8.970;2023-05-07T16:53:19;9.40;;;6.95;;
18780;SDS011;9519;51.890;8.970;2023-05-07T16:58:21;8.45;;;7.35;;
18780;SDS011;9519;51.890;8.970;2023-05-07T17:03:23;9.07;;;7.85;;
18780;SDS011;9519;51.890;8.970;2023-05-07T17:08:29;8.75;;;6.93;;
18780;SDS011;9519;51.890;8.970;2023-05-07T17:13:34;10.65;;;7.28;;
18780;SDS011;9519;51.890;8.970;2023-05-07T17:18:40;16.08;;;10.27;;
18780;SDS011;9519;51.890;8.970;2023-05-07T17:23:44;26.63;;;13.80;;
18780;SDS011;9519;51.890;8.970;2023-05-07T17:28:46;13.98;;;9.13;;
18780;SDS011;9519;51.890;8.970;2023-05-07T17:33:53;12.55;;;7.40;;
18780;SDS011;9519;51.890;8.970;2023-05-07T17:38:57;9.07;;;7.65;;
18780;SDS011;9519;51.890;8.970;2023-05-07T17:44:08;11.38;;;8.68;;
18780;SDS011;9519;51.890;8.970;2023-05-07T17:49:10;38.17;;;23.90;;
18780;SDS011;9519;51.890;8.970;2023-05-07T17:54:14;18.92;;;11.57;;
18780;SDS011;9519;51.890;8.970;2023-05-07T17:59:20;10.02;;;8.00;;
18780;SDS011;9519;51.890;8.970;2023-05-07T18:04:28;18.17;;;11.88;;
18780;SDS011;9519;51.890;8.970;2023-05-07T18:09:32;10.03;;;7.77;;
18780;SDS011;9519;51.890;8.970;2023-05-07T18:14:34;9.70;;;8.70;;
18780;SDS011;9519;51.890;8.970;2023-05-07T18:19:41;10.10;;;8.07;;
18780;SDS011;9519;51.890;8.970;2023-05-07T18:24:45;10.40;;;8.87;;
18780;SDS011;9519;51.890;8.970;2023-05-07T18:29:48;9.57;;;8.27;;
18780;SDS011;9519;51.890;8.970;2023-05-07T18:34:50;10.50;;;9.40;;
18780;SDS011;9519;51.890;8.970;2023-05-07T18:39:54;11.35;;;9.50;;
18780;SDS011;9519;51.890;8.970;2023-05-07T18:44:57;10.53;;;9.50;;
18780;SDS011;9519;51.890;8.970;2023-05-07T18:49:59;11.43;;;9.23;;
18780;SDS011;9519;51.890;8.970;2023-05-07T18:55:02;11.47;;;9.30;;
18780;SDS011;9519;51.890;8.970;2023-05-07T19:00:07;14.43;;;10.13;;
18780;SDS011;9519;51.890;8.970;2023-05-07T19:05:11;11.87;;;9.53;;
18780;SDS011;9519;51.890;8.970;2023-05-07T19:10:14;12.20;;;9.70;;
18780;SDS011;9519;51.890;8.970;2023-05-07T19:15:16;19.00;;;11.97;;
18780;SDS011;9519;51.890;8.970;2023-05-07T19:20:18;13.93;;;10.20;;
18780;SDS011;9519;51.890;8.970;2023-05-07T19:25:22;12.27;;;9.80;;
18780;SDS011;9519;51.890;8.970;2023-05-07T19:30:24;14.97;;;10.93;;
18780;SDS011;9519;51.890;8.970;2023-05-07T19:35:26;17.80;;;11.00;;
18780;SDS011;9519;51.890;8.970;2023-05-07T19:40:30;12.00;;;9.20;;
18780;SDS011;9519;51.890;8.970;2023-05-07T19:45:32;12.27;;;9.00;;
18780;SDS011;9519;51.890;8.970;2023-05-07T19:50:36;10.63;;;7.63;;
18780;SDS011;9519;51.890;8.970;2023-05-07T19:55:39;18.53;;;10.07;;
18780;SDS011;9519;51.890;8.970;2023-05-07T20:00:41;18.63;;;10.27;;
18780;SDS011;9519;51.890;8.970;2023-05-07T20:05:44;15.33;;;9.87;;
18780;SDS011;9519;51.890;8.970;2023-05-07T20:10:48;14.30;;;9.80;;
18780;SDS011;9519;51.890;8.970;2023-05-07T20:15:55;17.23;;;9.80;;
18780;SDS011;9519;51.890;8.970;2023-05-07T20:20:58;17.73;;;11.30;;
18780;SDS011;9519;51.890;8.970;2023-05-07T20:26:01;17.00;;;9.70;;
18780;SDS011;9519;51.890;8.970;2023-05-07T20:31:04;10.67;;;8.00;;
18780;SDS011;9519;51.890;8.970;2023-05-07T20:36:06;10.13;;;8.00;;
18780;SDS011;9519;51.890;8.970;2023-05-07T20:41:10;11.23;;;8.30;;
18780;SDS011;9519;51.890;8.970;2023-05-07T20:46:13;11.23;;;8.43;;
18780;SDS011;9519;51.890;8.970;2023-05-07T20:51:15;10.80;;;8.57;;
18780;SDS011;9519;51.890;8.970;2023-05-07T20:56:19;10.17;;;7.43;;
18780;SDS011;9519;51.890;8.970;2023-05-07T21:01:21;10.13;;;7.83;;
18780;SDS011;9519;51.890;8.970;2023-05-07T21:06:23;9.30;;;7.73;;
18780;SDS011;9519;51.890;8.970;2023-05-07T21:11:27;9.03;;;7.90;;
18780;SDS011;9519;51.890;8.970;2023-05-07T21:16:29;9.20;;;7.70;;
18780;SDS011;9519;51.890;8.970;2023-05-07T21:21:31;9.97;;;7.70;;
18780;SDS011;9519;51.890;8.970;2023-05-07T21:26:34;8.10;;;6.80;;
18780;SDS011;9519;51.890;8.970;2023-05-07T21:31:36;8.37;;;7.10;;
18780;SDS011;9519;51.890;8.970;2023-05-07T21:36:38;10.23;;;7.70;;
18780;SDS011;9519;51.890;8.970;2023-05-07T21:41:42;10.07;;;7.57;;
18780;SDS011;9519;51.890;8.970;2023-05-07T21:46:43;9.47;;;6.80;;
18780;SDS011;9519;51.890;8.970;2023-05-07T21:51:45;8.63;;;6.80;;
18780;SDS011;9519;51.890;8.970;2023-05-07T21:56:49;9.07;;;6.57;;
18780;SDS011;9519;51.890;8.970;2023-05-07T22:01:51;8.60;;;6.67;;
18780;SDS011;9519;51.890;8.970;2023-05-07T22:06:53;8.57;;;6.50;;
18780;SDS011;9519;51.890;8.970;2023-05-07T22:11:57;8.30;;;6.03;;
18780;SDS011;9519;51.890;8.970;2023-05-07T22:16:59;7.63;;;6.10;;
18780;SDS011;9519;51.890;8.970;2023-05-07T22:22:01;8.23;;;6.57;;
18780;SDS011;9519;51.890;8.970;2023-05-07T22:27:04;7.13;;;6.07;;
18780;SDS011;9519;51.890;8.970;2023-05-07T22:32:06;8.23;;;5.87;;
18780;SDS011;9519;51.890;8.970;2023-05-07T22:37:08;8.23;;;6.57;;
18780;SDS011;9519;51.890;8.970;2023-05-07T22:42:11;8.37;;;6.77;;
18780;SDS011;9519;51.890;8.970;2023-05-07T22:47:13;9.93;;;6.93;;
18780;SDS011;9519;51.890;8.970;2023-05-07T22:52:15;8.37;;;6.80;;
18780;SDS011;9519;51.890;8.970;2023-05-07T22:57:19;8.67;;;6.63;;
18780;SDS011;9519;51.890;8.970;2023-05-07T23:02:21;10.57;;;7.50;;
18780;SDS011;9519;51.890;8.970;2023-05-07T23:07:23;8.87;;;7.53;;
18780;SDS011;9519;51.890;8.970;2023-05-07T23:12:29;8.27;;;6.53;;
18780;SDS011;9519;51.890;8.970;2023-05-07T23:17:31;8.73;;;7.10;;
18780;SDS011;9519;51.890;8.970;2023-05-07T23:22:34;8.13;;;6.90;;
18780;SDS011;9519;51.890;8.970;2023-05-07T23:27:37;8.33;;;6.70;;
18780;SDS011;9519;51.890;8.970;2023-05-07T23:32:39;8.37;;;6.93;;
18780;SDS011;9519;51.890;8.970;2023-05-07T23:37:41;9.03;;;7.77;;
18780;SDS011;9519;51.890;8.970;2023-05-07T23:42:45;8.33;;;7.27;;
18780;SDS011;9519;51.890;8.970;2023-05-07T23:47:47;11.77;;;7.73;;
18780;SDS011;9519;51.890;8.970;2023-05-07T23:52:49;9.10;;;7.70;;
18780;SDS011;9519;51.890;8.970;2023-05-07T23:57:53;9.03;;;7.73;;
